sensor_id;sensor_type;location;lat;lon;timestamp;pressure;altitude;pressure_sealevel;temperature;humidity
19751;BME280;4663;49.120;9.730;2023-08-31T00:02:11;97477.88;;;15.87;83.47
19751;BME280;4663;49.120;9.730;2023-08-31T00:04:36;97464.16;;;15.96;84.83
19751;BME280;4663;49.120;9.730;2023-08-31T00:07:02;97465.63;;;15.85;83.87
19751;BME280;4663;49.120;9.730;2023-08-31T00:09:28;97461.69;;;16.08;83.82
19751;BME280;4663;49.120;9.730;2023-08-31T00:11:57;97466.06;;;16.22;83.36
19751;BME280;4663;49.120;9.730;2023-08-31T00:14:25;97472.28;;;16.23;83.39
19751;BME280;4663;49.120;9.730;2023-08-31T00:16:51;97461.66;;;16.01;82.75
19751;BME280;4663;49.120;9.730;2023-08-31T00:19:17;97474.16;;;15.95;83.56
19751;BME280;4663;49.120;9.730;2023-08-31T00:21:42;97486.00;;;15.87;84.49
19751;BME280;4663;49.120;9.730;2023-08-31T00:24:08;97496.81;;;15.94;83.48
19751;BME280;4663;49.120;9.730;2023-08-31T00:26:35;97489.31;;;16.03;82.77
19751;BME280;4663;49.120;9.730;2023-08-31T00:29:06;97488.91;;;15.86;83.92
19751;BME280;4663;49.120;9.730;2023-08-31T00:31:31;97493.06;;;15.81;84.23
19751;BME280;4663;49.120;9.730;2023-08-31T00:33:56;97485.38;;;15.72;83.72
19751;BME280;4663;49.120;9.730;2023-08-31T00:36:22;97489.13;;;15.84;84.40
19751;BME280;4663;49.120;9.730;2023-08-31T00:38:48;97489.56;;;15.81;82.33
19751;BME280;4663;49.120;9.730;2023-08-31T00:41:13;97491.81;;;15.64;84.01
19751;BME280;4663;49.120;9.730;2023-08-31T00:43:38;97487.88;;;15.87;83.43
19751;BME280;4663;49.120;9.730;2023-08-31T00:46:04;97482.66;;;15.51;83.86
19751;BME280;4663;49.120;9.730;2023-08-31T00:48:29;97479.75;;;15.73;83.27
19751;BME280;4663;49.120;9.730;2023-08-31T00:50:55;97480.72;;;15.25;84.29
19751;BME280;4663;49.120;9.730;2023-08-31T00:53:21;97487.59;;;15.34;84.13
19751;BME280;4663;49.120;9.730;2023-08-31T00:55:47;97492.22;;;15.61;83.57
19751;BME280;4663;49.120;9.730;2023-08-31T00:58:13;97491.28;;;15.13;83.49
19751;BME280;4663;49.120;9.730;2023-08-31T01:09:03;97515.53;;;15.06;84.59
19751;BME280;4663;49.120;9.730;2023-08-31T01:11:57;97517.53;;;15.33;84.03
19751;BME280;4663;49.120;9.730;2023-08-31T01:14:29;97516.28;;;15.35;83.71
19751;BME280;4663;49.120;9.730;2023-08-31T01:16:58;97516.47;;;15.34;83.66
19751;BME280;4663;49.120;9.730;2023-08-31T01:22:09;97515.47;;;15.35;83.48
19751;BME280;4663;49.120;9.730;2023-08-31T01:24:37;97521.72;;;15.00;84.50
19751;BME280;4663;49.120;9.730;2023-08-31T01:27:03;97531.63;;;15.21;83.62
19751;BME280;4663;49.120;9.730;2023-08-31T01:29:29;97524.34;;;15.22;83.86
19751;BME280;4663;49.120;9.730;2023-08-31T01:31:55;97527.69;;;15.31;83.17
19751;BME280;4663;49.120;9.730;2023-08-31T01:34:20;97529.09;;;14.77;84.37
19751;BME280;4663;49.120;9.730;2023-08-31T01:36:50;97524.03;;;15.03;84.43
19751;BME280;4663;49.120;9.730;2023-08-31T01:39:35;97516.66;;;15.19;84.08
19751;BME280;4663;49.120;9.730;2023-08-31T01:42:05;97511.50;;;14.88;83.70
19751;BME280;4663;49.120;9.730;2023-08-31T01:44:34;97519.25;;;14.63;83.88
19751;BME280;4663;49.120;9.730;2023-08-31T01:47:05;97514.66;;;14.99;83.41
19751;BME280;4663;49.120;9.730;2023-08-31T01:49:40;97512.63;;;15.08;83.70
19751;BME280;4663;49.120;9.730;2023-08-31T01:52:06;97515.47;;;14.93;83.21
19751;BME280;4663;49.120;9.730;2023-08-31T01:54:32;97518.22;;;14.57;84.73
19751;BME280;4663;49.120;9.730;2023-08-31T01:56:58;97524.78;;;14.48;84.65
19751;BME280;4663;49.120;9.730;2023-08-31T01:59:24;97523.13;;;14.47;85.38
19751;BME280;4663;49.120;9.730;2023-08-31T02:01:49;97527.47;;;14.19;85.17
19751;BME280;4663;49.120;9.730;2023-08-31T02:04:14;97526.06;;;14.01;84.96
19751;BME280;4663;49.120;9.730;2023-08-31T02:06:40;97523.13;;;13.96;85.23
19751;BME280;4663;49.120;9.730;2023-08-31T02:09:06;97533.56;;;14.28;84.88
19751;BME280;4663;49.120;9.730;2023-08-31T02:11:31;97532.41;;;14.37;84.62
19751;BME280;4663;49.120;9.730;2023-08-31T02:13:58;97540.78;;;14.49;85.09
19751;BME280;4663;49.120;9.730;2023-08-31T02:16:23;97538.22;;;14.70;84.08
19751;BME280;4663;49.120;9.730;2023-08-31T02:18:49;97545.09;;;14.79;83.52
19751;BME280;4663;49.120;9.730;2023-08-31T02:21:14;97544.31;;;14.85;83.49
19751;BME280;4663;49.120;9.730;2023-08-31T02:23:40;97550.72;;;14.84;83.48
19751;BME280;4663;49.120;9.730;2023-08-31T02:26:05;97558.03;;;14.55;83.98
19751;BME280;4663;49.120;9.730;2023-08-31T02:28:31;97558.13;;;14.69;83.21
19751;BME280;4663;49.120;9.730;2023-08-31T02:31:02;97558.03;;;14.55;83.82
19751;BME280;4663;49.120;9.730;2023-08-31T02:33:28;97556.94;;;14.78;83.72
19751;BME280;4663;49.120;9.730;2023-08-31T02:35:54;97558.56;;;14.72;84.08
19751;BME280;4663;49.120;9.730;2023-08-31T02:38:20;97552.66;;;14.90;83.50
19751;BME280;4663;49.120;9.730;2023-08-31T02:40:46;97558.59;;;14.79;83.34
19751;BME280;4663;49.120;9.730;2023-08-31T02:43:12;97558.66;;;14.93;83.80
19751;BME280;4663;49.120;9.730;2023-08-31T02:45:38;97554.16;;;14.64;83.45
19751;BME280;4663;49.120;9.730;2023-08-31T02:48:04;97560.41;;;14.72;83.56
19751;BME280;4663;49.120;9.730;2023-08-31T02:50:31;97557.34;;;14.46;84.00
19751;BME280;4663;49.120;9.730;2023-08-31T02:52:56;97554.91;;;14.51;83.73
19751;BME280;4663;49.120;9.730;2023-08-31T02:55:22;97563.16;;;14.78;84.49
19751;BME280;4663;49.120;9.730;2023-08-31T02:57:48;97556.75;;;14.80;83.55
19751;BME280;4663;49.120;9.730;2023-08-31T03:00:13;97558.13;;;14.69;83.82
19751;BME280;4663;49.120;9.730;2023-08-31T03:02:40;97564.00;;;14.79;83.89
19751;BME280;4663;49.120;9.730;2023-08-31T03:05:05;97551.50;;;14.71;83.43
19751;BME280;4663;49.120;9.730;2023-08-31T03:07:32;97566.81;;;14.64;84.35
19751;BME280;4663;49.120;9.730;2023-08-31T03:09:57;97559.31;;;14.59;83.90
19751;BME280;4663;49.120;9.730;2023-08-31T03:12:22;97568.84;;;14.55;84.87
19751;BME280;4663;49.120;9.730;2023-08-31T03:14:48;97561.50;;;14.77;83.28
19751;BME280;4663;49.120;9.730;2023-08-31T03:17:13;97554.59;;;14.39;84.69
19751;BME280;4663;49.120;9.730;2023-08-31T03:19:39;97554.91;;;14.23;84.79
19751;BME280;4663;49.120;9.730;2023-08-31T03:22:04;97559.03;;;14.47;84.84
19751;BME280;4663;49.120;9.730;2023-08-31T03:24:32;97562.78;;;14.53;85.05
19751;BME280;4663;49.120;9.730;2023-08-31T03:26:57;97558.00;;;14.48;84.30
19751;BME280;4663;49.120;9.730;2023-08-31T03:29:23;97551.69;;;14.12;85.43
19751;BME280;4663;49.120;9.730;2023-08-31T03:31:48;97566.53;;;14.23;84.95
19751;BME280;4663;49.120;9.730;2023-08-31T03:34:13;97567.22;;;14.32;84.68
19751;BME280;4663;49.120;9.730;2023-08-31T03:36:39;97563.44;;;14.26;85.10
19751;BME280;4663;49.120;9.730;2023-08-31T03:39:04;97572.47;;;14.41;84.54
19751;BME280;4663;49.120;9.730;2023-08-31T03:41:30;97578.16;;;14.81;84.10
19751;BME280;4663;49.120;9.730;2023-08-31T03:43:55;97577.97;;;14.54;84.34
19751;BME280;4663;49.120;9.730;2023-08-31T03:46:21;97580.13;;;14.65;83.50
19751;BME280;4663;49.120;9.730;2023-08-31T03:48:46;97583.59;;;14.31;84.82
19751;BME280;4663;49.120;9.730;2023-08-31T03:51:12;97583.75;;;14.80;83.46
19751;BME280;4663;49.120;9.730;2023-08-31T03:53:37;97591.38;;;14.76;83.72
19751;BME280;4663;49.120;9.730;2023-08-31T03:56:03;97587.56;;;14.63;83.86
19751;BME280;4663;49.120;9.730;2023-08-31T03:58:29;97577.66;;;14.71;83.65
19751;BME280;4663;49.120;9.730;2023-08-31T04:00:55;97585.09;;;14.69;84.06
19751;BME280;4663;49.120;9.730;2023-08-31T04:03:20;97592.09;;;14.56;83.75
19751;BME280;4663;49.120;9.730;2023-08-31T04:05:46;97590.13;;;14.72;84.15
19751;BME280;4663;49.120;9.730;2023-08-31T04:08:12;97603.94;;;14.90;83.31
19751;BME280;4663;49.120;9.730;2023-08-31T04:10:37;97606.75;;;14.47;84.34
19751;BME280;4663;49.120;9.730;2023-08-31T04:13:03;97611.06;;;14.41;84.59
19751;BME280;4663;49.120;9.730;2023-08-31T04:15:28;97590.63;;;14.54;84.42
19751;BME280;4663;49.120;9.730;2023-08-31T04:17:56;97602.78;;;14.43;84.90
19751;BME280;4663;49.120;9.730;2023-08-31T04:20:21;97605.03;;;14.68;83.95
19751;BME280;4663;49.120;9.730;2023-08-31T04:22:47;97617.31;;;14.42;84.20
19751;BME280;4663;49.120;9.730;2023-08-31T04:25:12;97611.63;;;14.08;85.34
19751;BME280;4663;49.120;9.730;2023-08-31T04:27:38;97617.31;;;14.20;84.54
19751;BME280;4663;49.120;9.730;2023-08-31T04:30:05;97618.75;;;14.16;84.65
19751;BME280;4663;49.120;9.730;2023-08-31T04:32:32;97615.63;;;14.41;84.46
19751;BME280;4663;49.120;9.730;2023-08-31T04:34:57;97614.81;;;14.40;83.63
19751;BME280;4663;49.120;9.730;2023-08-31T04:37:23;97619.78;;;14.15;84.57
19751;BME280;4663;49.120;9.730;2023-08-31T04:39:48;97618.50;;;14.10;84.35
19751;BME280;4663;49.120;9.730;2023-08-31T04:42:14;97624.38;;;14.21;85.63
19751;BME280;4663;49.120;9.730;2023-08-31T04:44:41;97628.81;;;14.29;84.54
19751;BME280;4663;49.120;9.730;2023-08-31T04:47:07;97632.59;;;14.12;84.99
19751;BME280;4663;49.120;9.730;2023-08-31T04:49:32;97630.69;;;14.06;84.15
19751;BME280;4663;49.120;9.730;2023-08-31T04:51:58;97637.38;;;14.10;84.67
19751;BME280;4663;49.120;9.730;2023-08-31T04:54:24;97631.13;;;14.32;83.89
19751;BME280;4663;49.120;9.730;2023-08-31T04:56:49;97642.13;;;14.30;84.50
19751;BME280;4663;49.120;9.730;2023-08-31T04:59:15;97641.22;;;14.23;84.48
19751;BME280;4663;49.120;9.730;2023-08-31T05:01:40;97628.16;;;14.26;83.78
19751;BME280;4663;49.120;9.730;2023-08-31T05:04:06;97643.66;;;14.39;84.04
19751;BME280;4663;49.120;9.730;2023-08-31T05:06:31;97646.44;;;14.53;83.49
19751;BME280;4663;49.120;9.730;2023-08-31T05:08:57;97646.44;;;14.53;83.30
19751;BME280;4663;49.120;9.730;2023-08-31T05:11:23;97651.72;;;14.61;82.95
19751;BME280;4663;49.120;9.730;2023-08-31T05:13:48;97648.75;;;14.56;84.15
19751;BME280;4663;49.120;9.730;2023-08-31T05:16:14;97649.28;;;14.95;82.23
19751;BME280;4663;49.120;9.730;2023-08-31T05:18:39;97652.56;;;14.90;82.74
19751;BME280;4663;49.120;9.730;2023-08-31T05:21:05;97658.03;;;15.04;82.84
19751;BME280;4663;49.120;9.730;2023-08-31T05:23:31;97655.94;;;14.99;83.29
19751;BME280;4663;49.120;9.730;2023-08-31T05:25:57;97649.63;;;14.85;83.48
19751;BME280;4663;49.120;9.730;2023-08-31T05:28:23;97661.84;;;14.81;83.09
19751;BME280;4663;49.120;9.730;2023-08-31T05:30:50;97671.47;;;14.69;83.44
19751;BME280;4663;49.120;9.730;2023-08-31T05:33:16;97666.34;;;14.74;83.54
19751;BME280;4663;49.120;9.730;2023-08-31T05:35:42;97669.06;;;14.74;82.91
19751;BME280;4663;49.120;9.730;2023-08-31T05:38:07;97666.66;;;14.57;84.01
19751;BME280;4663;49.120;9.730;2023-08-31T05:40:32;97670.84;;;15.24;83.24
19751;BME280;4663;49.120;9.730;2023-08-31T05:42:58;97677.41;;;15.08;82.79
19751;BME280;4663;49.120;9.730;2023-08-31T05:45:23;97686.72;;;15.05;83.27
19751;BME280;4663;49.120;9.730;2023-08-31T05:47:49;97686.44;;;15.22;82.66
19751;BME280;4663;49.120;9.730;2023-08-31T05:50:14;97691.28;;;15.33;82.81
19751;BME280;4663;49.120;9.730;2023-08-31T05:52:40;97690.25;;;15.34;83.13
19751;BME280;4663;49.120;9.730;2023-08-31T05:55:09;97690.25;;;15.34;83.14
19751;BME280;4663;49.120;9.730;2023-08-31T05:57:35;97688.28;;;15.57;82.64
19751;BME280;4663;49.120;9.730;2023-08-31T06:00:01;97683.81;;;15.84;82.43
19751;BME280;4663;49.120;9.730;2023-08-31T06:02:26;97683.84;;;15.91;79.97
19751;BME280;4663;49.120;9.730;2023-08-31T06:04:51;97693.16;;;16.51;80.68
19751;BME280;4663;49.120;9.730;2023-08-31T06:07:17;97696.47;;;16.32;81.35
19751;BME280;4663;49.120;9.730;2023-08-31T06:09:42;97693.94;;;16.17;82.42
19751;BME280;4663;49.120;9.730;2023-08-31T06:12:08;97696.09;;;16.76;80.94
19751;BME280;4663;49.120;9.730;2023-08-31T06:14:33;97707.13;;;16.88;79.96
19751;BME280;4663;49.120;9.730;2023-08-31T06:16:59;97706.31;;;16.81;79.95
19751;BME280;4663;49.120;9.730;2023-08-31T06:19:24;97716.22;;;15.71;83.16
19751;BME280;4663;49.120;9.730;2023-08-31T06:21:49;97717.38;;;16.03;82.74
19751;BME280;4663;49.120;9.730;2023-08-31T06:24:15;97709.97;;;16.19;81.54
19751;BME280;4663;49.120;9.730;2023-08-31T06:26:41;97719.16;;;16.31;82.09
19751;BME280;4663;49.120;9.730;2023-08-31T06:29:06;97715.19;;;16.34;82.33
19751;BME280;4663;49.120;9.730;2023-08-31T06:31:34;97722.66;;;16.18;82.64
19751;BME280;4663;49.120;9.730;2023-08-31T06:33:59;97729.59;;;16.55;81.84
19751;BME280;4663;49.120;9.730;2023-08-31T06:36:25;97719.81;;;16.67;80.53
19751;BME280;4663;49.120;9.730;2023-08-31T06:38:50;97722.28;;;16.42;80.73
19751;BME280;4663;49.120;9.730;2023-08-31T06:41:15;97725.47;;;16.66;81.00
19751;BME280;4663;49.120;9.730;2023-08-31T06:43:41;97736.66;;;16.42;80.45
19751;BME280;4663;49.120;9.730;2023-08-31T06:46:06;97729.38;;;16.36;79.85
19751;BME280;4663;49.120;9.730;2023-08-31T06:48:32;97737.13;;;16.04;81.66
19751;BME280;4663;49.120;9.730;2023-08-31T06:50:57;97726.28;;;16.53;79.11
19751;BME280;4663;49.120;9.730;2023-08-31T06:53:22;97738.13;;;16.38;82.67
19751;BME280;4663;49.120;9.730;2023-08-31T06:55:48;97733.16;;;16.62;79.79
19751;BME280;4663;49.120;9.730;2023-08-31T06:58:13;97742.53;;;16.53;79.53
19751;BME280;4663;49.120;9.730;2023-08-31T07:00:39;97744.22;;;17.21;77.80
19751;BME280;4663;49.120;9.730;2023-08-31T07:03:04;97753.53;;;16.44;80.55
19751;BME280;4663;49.120;9.730;2023-08-31T07:05:34;97753.81;;;18.10;80.15
19751;BME280;4663;49.120;9.730;2023-08-31T07:08:02;97751.31;;;18.87;77.27
19751;BME280;4663;49.120;9.730;2023-08-31T07:10:28;97745.03;;;18.86;73.95
19751;BME280;4663;49.120;9.730;2023-08-31T07:12:53;97763.78;;;19.20;78.24
19751;BME280;4663;49.120;9.730;2023-08-31T07:15:18;97750.66;;;19.61;73.50
19751;BME280;4663;49.120;9.730;2023-08-31T07:17:44;97748.44;;;20.08;71.64
19751;BME280;4663;49.120;9.730;2023-08-31T07:20:10;97766.13;;;20.36;71.94
19751;BME280;4663;49.120;9.730;2023-08-31T07:22:37;97757.50;;;20.81;70.81
19751;BME280;4663;49.120;9.730;2023-08-31T07:25:03;97750.09;;;20.09;68.08
19751;BME280;4663;49.120;9.730;2023-08-31T07:27:29;97757.50;;;20.39;69.25
19751;BME280;4663;49.120;9.730;2023-08-31T07:29:54;97772.22;;;21.04;71.00
19751;BME280;4663;49.120;9.730;2023-08-31T07:32:20;97771.91;;;19.71;71.16
19751;BME280;4663;49.120;9.730;2023-08-31T07:34:46;97776.41;;;20.15;72.09
19751;BME280;4663;49.120;9.730;2023-08-31T07:37:11;97766.22;;;19.03;70.15
19751;BME280;4663;49.120;9.730;2023-08-31T07:39:36;97774.47;;;19.85;71.45
19751;BME280;4663;49.120;9.730;2023-08-31T07:42:02;97783.34;;;19.55;70.84
19751;BME280;4663;49.120;9.730;2023-08-31T07:44:27;97776.59;;;19.13;70.90
19751;BME280;4663;49.120;9.730;2023-08-31T07:46:53;97789.59;;;18.72;72.94
19751;BME280;4663;49.120;9.730;2023-08-31T07:49:18;97798.06;;;18.18;74.25
19751;BME280;4663;49.120;9.730;2023-08-31T07:51:44;97794.72;;;18.94;71.48
19751;BME280;4663;49.120;9.730;2023-08-31T07:54:09;97793.44;;;18.64;72.03
19751;BME280;4663;49.120;9.730;2023-08-31T07:56:36;97794.53;;;18.49;75.17
19751;BME280;4663;49.120;9.730;2023-08-31T07:59:01;97800.97;;;18.16;73.38
19751;BME280;4663;49.120;9.730;2023-08-31T08:01:27;97786.06;;;17.80;70.28
19751;BME280;4663;49.120;9.730;2023-08-31T08:03:52;97794.00;;;18.34;70.74
19751;BME280;4663;49.120;9.730;2023-08-31T08:06:18;97792.38;;;18.97;70.02
19751;BME280;4663;49.120;9.730;2023-08-31T08:08:43;97790.25;;;19.06;71.08
19751;BME280;4663;49.120;9.730;2023-08-31T08:11:10;97777.97;;;20.23;67.00
19751;BME280;4663;49.120;9.730;2023-08-31T08:13:35;97783.38;;;19.92;67.80
19751;BME280;4663;49.120;9.730;2023-08-31T08:16:01;97790.56;;;19.86;67.20
19751;BME280;4663;49.120;9.730;2023-08-31T08:18:26;97791.88;;;20.94;69.11
19751;BME280;4663;49.120;9.730;2023-08-31T08:20:52;97794.63;;;19.33;71.01
19751;BME280;4663;49.120;9.730;2023-08-31T08:23:17;97774.47;;;20.96;65.15
19751;BME280;4663;49.120;9.730;2023-08-31T08:25:43;97778.28;;;20.52;66.31
19751;BME280;4663;49.120;9.730;2023-08-31T08:28:08;97774.22;;;19.23;65.68
19751;BME280;4663;49.120;9.730;2023-08-31T08:30:34;97789.31;;;19.38;71.00
19751;BME280;4663;49.120;9.730;2023-08-31T08:32:59;97779.16;;;19.96;66.47
19751;BME280;4663;49.120;9.730;2023-08-31T08:35:25;97811.53;;;18.84;71.56
19751;BME280;4663;49.120;9.730;2023-08-31T08:37:51;97791.47;;;19.36;69.08
19751;BME280;4663;49.120;9.730;2023-08-31T08:40:17;97794.09;;;18.14;69.79
19751;BME280;4663;49.120;9.730;2023-08-31T08:42:43;97797.47;;;18.02;68.77
19751;BME280;4663;49.120;9.730;2023-08-31T08:45:14;97813.81;;;18.41;73.38
19751;BME280;4663;49.120;9.730;2023-08-31T08:47:42;97810.84;;;18.04;71.72
19751;BME280;4663;49.120;9.730;2023-08-31T08:50:09;97815.47;;;17.69;74.04
19751;BME280;4663;49.120;9.730;2023-08-31T08:52:35;97825.59;;;18.21;74.46
19751;BME280;4663;49.120;9.730;2023-08-31T08:55:08;97827.25;;;18.22;75.92
19751;BME280;4663;49.120;9.730;2023-08-31T08:57:34;97818.59;;;17.80;74.74
19751;BME280;4663;49.120;9.730;2023-08-31T09:00:00;97814.69;;;17.42;76.06
19751;BME280;4663;49.120;9.730;2023-08-31T09:02:26;97799.66;;;20.29;71.32
19751;BME280;4663;49.120;9.730;2023-08-31T09:04:53;97813.81;;;18.87;72.55
19751;BME280;4663;49.120;9.730;2023-08-31T09:07:22;97797.03;;;18.90;70.40
19751;BME280;4663;49.120;9.730;2023-08-31T09:09:52;97827.16;;;18.88;74.97
19751;BME280;4663;49.120;9.730;2023-08-31T09:12:20;97800.75;;;19.47;69.92
19751;BME280;4663;49.120;9.730;2023-08-31T09:15:03;97786.19;;;20.04;66.20
19751;BME280;4663;49.120;9.730;2023-08-31T09:17:41;97788.56;;;20.92;63.12
19751;BME280;4663;49.120;9.730;2023-08-31T09:20:09;97787.81;;;20.42;61.43
19751;BME280;4663;49.120;9.730;2023-08-31T09:22:35;97805.97;;;20.11;63.97
19751;BME280;4663;49.120;9.730;2023-08-31T09:25:01;97814.34;;;20.28;64.61
19751;BME280;4663;49.120;9.730;2023-08-31T09:27:29;97817.22;;;20.52;64.44
19751;BME280;4663;49.120;9.730;2023-08-31T09:29:56;97819.97;;;19.96;66.97
19751;BME280;4663;49.120;9.730;2023-08-31T09:32:21;97819.94;;;20.52;65.67
19751;BME280;4663;49.120;9.730;2023-08-31T09:34:47;97833.09;;;19.55;68.59
19751;BME280;4663;49.120;9.730;2023-08-31T09:37:15;97808.63;;;20.18;65.46
19751;BME280;4663;49.120;9.730;2023-08-31T09:39:41;97804.13;;;21.04;62.81
19751;BME280;4663;49.120;9.730;2023-08-31T09:42:08;97816.25;;;20.77;63.60
19751;BME280;4663;49.120;9.730;2023-08-31T09:44:33;97817.97;;;22.34;60.78
19751;BME280;4663;49.120;9.730;2023-08-31T09:46:59;97801.56;;;22.46;58.42
19751;BME280;4663;49.120;9.730;2023-08-31T09:49:26;97812.00;;;21.84;60.00
19751;BME280;4663;49.120;9.730;2023-08-31T09:51:52;97802.97;;;21.83;58.32
19751;BME280;4663;49.120;9.730;2023-08-31T09:54:19;97796.25;;;21.74;58.01
19751;BME280;4663;49.120;9.730;2023-08-31T09:56:47;97820.91;;;22.85;59.10
19751;BME280;4663;49.120;9.730;2023-08-31T09:59:14;97791.16;;;21.66;57.44
19751;BME280;4663;49.120;9.730;2023-08-31T10:01:42;97817.00;;;21.63;62.85
19751;BME280;4663;49.120;9.730;2023-08-31T10:04:08;97828.91;;;20.22;66.06
19751;BME280;4663;49.120;9.730;2023-08-31T10:06:41;97791.25;;;21.47;58.63
19751;BME280;4663;49.120;9.730;2023-08-31T10:09:07;97779.88;;;21.74;56.14
19751;BME280;4663;49.120;9.730;2023-08-31T10:11:38;97799.94;;;21.56;56.30
19751;BME280;4663;49.120;9.730;2023-08-31T10:14:04;97794.13;;;20.86;57.82
19751;BME280;4663;49.120;9.730;2023-08-31T10:16:30;97824.81;;;22.90;60.59
19751;BME280;4663;49.120;9.730;2023-08-31T10:18:56;97798.66;;;22.82;57.60
19751;BME280;4663;49.120;9.730;2023-08-31T10:21:22;97816.28;;;22.86;57.07
19751;BME280;4663;49.120;9.730;2023-08-31T10:23:49;97810.66;;;22.22;57.10
19751;BME280;4663;49.120;9.730;2023-08-31T10:26:29;97801.34;;;22.35;57.00
19751;BME280;4663;49.120;9.730;2023-08-31T10:28:55;97809.03;;;22.51;57.76
19751;BME280;4663;49.120;9.730;2023-08-31T10:31:22;97821.59;;;23.10;58.30
19751;BME280;4663;49.120;9.730;2023-08-31T10:34:08;97831.25;;;21.77;60.06
19751;BME280;4663;49.120;9.730;2023-08-31T10:36:41;97834.03;;;21.23;60.52
19751;BME280;4663;49.120;9.730;2023-08-31T10:39:13;97822.78;;;22.85;58.30
19751;BME280;4663;49.120;9.730;2023-08-31T10:41:39;97835.22;;;22.34;60.33
19751;BME280;4663;49.120;9.730;2023-08-31T10:44:24;97829.00;;;21.07;61.36
19751;BME280;4663;49.120;9.730;2023-08-31T10:46:51;97801.41;;;22.12;56.29
19751;BME280;4663;49.120;9.730;2023-08-31T10:49:20;97802.41;;;21.81;57.29
19751;BME280;4663;49.120;9.730;2023-08-31T10:51:50;97817.59;;;20.99;60.11
19751;BME280;4663;49.120;9.730;2023-08-31T10:59:50;97811.50;;;20.23;60.05
19751;BME280;4663;49.120;9.730;2023-08-31T11:02:35;97801.59;;;20.90;59.58
19751;BME280;4663;49.120;9.730;2023-08-31T11:05:11;97833.50;;;20.22;64.81
19751;BME280;4663;49.120;9.730;2023-08-31T11:07:39;97818.16;;;19.71;62.98
19751;BME280;4663;49.120;9.730;2023-08-31T11:10:15;97808.72;;;19.92;60.94
19751;BME280;4663;49.120;9.730;2023-08-31T11:12:49;97830.78;;;19.84;65.84
19751;BME280;4663;49.120;9.730;2023-08-31T11:15:17;97828.91;;;20.22;65.49
19751;BME280;4663;49.120;9.730;2023-08-31T11:17:43;97810.88;;;19.65;62.85
19751;BME280;4663;49.120;9.730;2023-08-31T11:20:14;97839.03;;;19.96;66.31
19751;BME280;4663;49.120;9.730;2023-08-31T11:22:41;97817.69;;;19.93;61.95
19751;BME280;4663;49.120;9.730;2023-08-31T11:25:08;97826.06;;;19.91;65.54
19751;BME280;4663;49.120;9.730;2023-08-31T11:27:34;97830.38;;;19.55;64.95
19751;BME280;4663;49.120;9.730;2023-08-31T11:30:00;97812.25;;;20.30;61.97
19751;BME280;4663;49.120;9.730;2023-08-31T11:32:25;97843.63;;;19.51;67.16
19751;BME280;4663;49.120;9.730;2023-08-31T11:34:51;97813.75;;;19.89;63.35
19751;BME280;4663;49.120;9.730;2023-08-31T11:37:19;97800.19;;;20.57;60.99
19751;BME280;4663;49.120;9.730;2023-08-31T11:39:53;97826.69;;;19.94;64.10
19751;BME280;4663;49.120;9.730;2023-08-31T11:42:21;97811.41;;;19.48;61.94
19751;BME280;4663;49.120;9.730;2023-08-31T11:44:48;97794.50;;;19.90;60.36
19751;BME280;4663;49.120;9.730;2023-08-31T11:47:14;97786.66;;;20.93;57.97
19751;BME280;4663;49.120;9.730;2023-08-31T11:49:41;97787.59;;;20.87;57.16
19751;BME280;4663;49.120;9.730;2023-08-31T11:52:09;97790.53;;;21.40;56.09
19751;BME280;4663;49.120;9.730;2023-08-31T11:54:42;97799.69;;;21.93;57.55
19751;BME280;4663;49.120;9.730;2023-08-31T11:57:11;97798.28;;;20.88;57.20
19751;BME280;4663;49.120;9.730;2023-08-31T11:59:38;97807.75;;;20.55;58.71
19751;BME280;4663;49.120;9.730;2023-08-31T12:02:08;97820.50;;;20.42;63.14
19751;BME280;4663;49.120;9.730;2023-08-31T12:04:42;97790.06;;;21.43;56.69
19751;BME280;4663;49.120;9.730;2023-08-31T12:07:08;97803.72;;;21.31;59.20
19751;BME280;4663;49.120;9.730;2023-08-31T12:09:34;97781.63;;;20.66;57.08
19751;BME280;4663;49.120;9.730;2023-08-31T12:12:00;97805.28;;;20.96;58.90
19751;BME280;4663;49.120;9.730;2023-08-31T12:14:27;97788.91;;;21.39;57.67
19751;BME280;4663;49.120;9.730;2023-08-31T12:17:01;97806.81;;;21.58;58.53
19751;BME280;4663;49.120;9.730;2023-08-31T12:19:28;97782.69;;;21.79;55.83
19751;BME280;4663;49.120;9.730;2023-08-31T12:21:57;97796.97;;;21.33;55.95
19751;BME280;4663;49.120;9.730;2023-08-31T12:24:23;97812.56;;;21.14;57.69
19751;BME280;4663;49.120;9.730;2023-08-31T12:26:49;97791.25;;;21.47;54.27
19751;BME280;4663;49.120;9.730;2023-08-31T12:29:16;97805.50;;;21.49;54.73
19751;BME280;4663;49.120;9.730;2023-08-31T12:31:41;97799.94;;;20.89;55.86
19751;BME280;4663;49.120;9.730;2023-08-31T12:34:08;97823.63;;;20.89;58.24
19751;BME280;4663;49.120;9.730;2023-08-31T12:36:34;97818.28;;;21.61;57.93
19751;BME280;4663;49.120;9.730;2023-08-31T12:39:02;97779.50;;;21.70;53.65
19751;BME280;4663;49.120;9.730;2023-08-31T12:41:31;97833.72;;;21.43;59.53
19751;BME280;4663;49.120;9.730;2023-08-31T12:43:56;97796.38;;;21.43;56.55
19751;BME280;4663;49.120;9.730;2023-08-31T12:46:23;97786.66;;;20.93;56.52
19751;BME280;4663;49.120;9.730;2023-08-31T12:48:48;97799.78;;;21.15;56.48
19751;BME280;4663;49.120;9.730;2023-08-31T12:51:15;97776.19;;;20.66;54.98
19751;BME280;4663;49.120;9.730;2023-08-31T12:53:40;97796.94;;;21.45;57.50
19751;BME280;4663;49.120;9.730;2023-08-31T12:56:06;97776.97;;;20.97;55.96
19751;BME280;4663;49.120;9.730;2023-08-31T12:58:32;97822.16;;;21.17;62.53
19751;BME280;4663;49.120;9.730;2023-08-31T13:01:00;97765.47;;;21.07;54.31
19751;BME280;4663;49.120;9.730;2023-08-31T13:03:26;97789.03;;;21.56;56.42
19751;BME280;4663;49.120;9.730;2023-08-31T13:05:53;97804.78;;;21.54;57.99
19751;BME280;4663;49.120;9.730;2023-08-31T13:08:18;97785.69;;;21.30;55.79
19751;BME280;4663;49.120;9.730;2023-08-31T13:10:51;97827.81;;;21.46;61.24
19751;BME280;4663;49.120;9.730;2023-08-31T13:13:16;97814.19;;;20.91;61.38
19751;BME280;4663;49.120;9.730;2023-08-31T13:15:42;97796.28;;;20.96;57.83
19751;BME280;4663;49.120;9.730;2023-08-31T13:18:07;97831.59;;;20.60;62.74
19751;BME280;4663;49.120;9.730;2023-08-31T13:20:32;97831.38;;;20.42;60.38
19751;BME280;4663;49.120;9.730;2023-08-31T13:22:59;97812.47;;;20.48;58.16
19751;BME280;4663;49.120;9.730;2023-08-31T13:25:24;97843.88;;;20.50;63.41